Weather reports worldwide

Advertisment
Mumbles, United Kingdom (3609): temperature & dewpoint: 05.07.2020 15:00:00 - 11.07.2020 15:00:00 (BST)Mumbles, United Kingdom (3609): wind speed & gusts: 05.07.2020 15:00:00 - 11.07.2020 15:00:00 (BST)Mumbles, United Kingdom (3609): wind direction: 05.07.2020 15:00:00 - 11.07.2020 15:00:00 (BST)Mumbles, United Kingdom (3609): reduced air pressure: 05.07.2020 15:00:00 - 11.07.2020 15:00:00 (BST)Mumbles, United Kingdom (3609): precipitation: 05.07.2020 15:00:00 - 11.07.2020 15:00:00 (BST)
Date & Time tt [°C] td [°C] ff [km/h] ff [kn] fx [km/h] fx [kn] dd ppp [hPa] rr [mm]
11.07.2020 15:00:00 18,3 12,6 28 15 - - SW 1028,6 0,0
11.07.2020 14:00:00 17,3 11,5 24 13 - - SW 1028,9 0,0
11.07.2020 13:00:00 16,5 11,0 21 11 - - WSW 1029,0 0,0
11.07.2020 12:00:00 16,9 11,8 21 11 - - SSW 1029,2 0,0
11.07.2020 11:00:00 17,2 11,1 9 5 - - S 1029,0 0,0
11.07.2020 10:00:00 16,9 10,9 5 3 - - NW 1028,9 0,0
11.07.2020 09:00:00 15,6 11,1 5 3 - - ENE 1028,5 0,0
11.07.2020 08:00:00 14,3 10,7 8 4 - - ENE 1028,0 0,0
11.07.2020 07:00:00 13,1 10,2 4 2 - - NE 1027,7 0,0
11.07.2020 06:00:00 11,4 9,1 5 3 - - N 1027,4 0,0
11.07.2020 05:00:00 11,0 8,1 13 7 - - N 1026,9 0,0
11.07.2020 04:00:00 11,3 8,1 11 6 - - N 1026,5 0,0
11.07.2020 03:00:00 11,5 8,1 13 7 - - N 1026,4 0,0
11.07.2020 02:00:00 11,6 8,7 13 7 - - NNW 1026,4 0,0
11.07.2020 01:00:00 12,0 9,5 9 5 - - N 1026,5 0,0
11.07.2020 00:00:00 12,9 9,4 15 8 - - WNW 1026,5 0,0
10.07.2020 23:00:00 13,2 7,1 15 8 - - WNW 1026,1 0,0
10.07.2020 22:00:00 13,1 7,4 9 5 - - WNW 1025,4 0,0
10.07.2020 21:00:00 15,0 7,0 11 6 - - NW 1024,6 0,0
10.07.2020 20:00:00 15,9 6,4 16 9 - - NNW 1024,2 0,0
10.07.2020 19:00:00 16,4 6,1 21 11 - - NW - 0,0
10.07.2020 18:00:00 16,2 6,5 16 9 - - NW - 0,0
10.07.2020 17:00:00 15,7 5,8 18 10 - - NW - 0,0
10.07.2020 16:00:00 15,7 7,2 18 10 - - NW - 0,0
10.07.2020 15:00:00 15,5 7,7 21 11 - - NW - 0,0
10.07.2020 14:00:00 15,6 7,8 18 10 - - NW - 0,0
10.07.2020 13:00:00 15,1 7,9 21 11 - - NW - 0,0
10.07.2020 12:00:00 14,4 7,4 21 11 - - NW - -
10.07.2020 11:00:00 14,6 6,4 18 10 - - NW - -
10.07.2020 10:00:00 14,2 8,6 16 9 - - NW - 0,0
10.07.2020 09:00:00 13,2 9,5 13 7 - - NW - 0,0
10.07.2020 08:00:00 12,1 9,3 15 8 - - NW - 0,0
10.07.2020 07:00:00 12,3 8,7 15 8 - - NW - 0,0
10.07.2020 06:00:00 11,6 8,3 13 7 - - NW - 0,0
10.07.2020 05:00:00 11,8 8,6 15 8 - - NW - 0,0
10.07.2020 04:00:00 12,1 10,0 16 9 - - NW - 0,0
10.07.2020 03:00:00 12,2 10,6 16 9 - - NW - 0,0
10.07.2020 02:00:00 12,1 10,4 15 8 - - WNW - 0,0
10.07.2020 01:00:00 12,5 10,5 11 6 - - WNW 1026,5 0,0
10.07.2020 00:00:00 13,2 10,8 8 4 - - NW - 0,0
09.07.2020 23:00:00 14,0 11,7 9 5 - - NW - 0,0
09.07.2020 22:00:00 14,4 12,0 11 6 - - NW - 0,0
09.07.2020 21:00:00 15,6 12,4 11 6 - - NW - 0,0
09.07.2020 20:00:00 16,3 13,3 16 9 - - NW - 0,0
09.07.2020 19:00:00 15,4 12,7 18 10 - - NW - 0,0
09.07.2020 18:00:00 16,3 12,9 22 12 - - NW - 0,0
09.07.2020 17:00:00 17,4 13,4 22 12 - - WNW - 0,0
09.07.2020 16:00:00 17,6 14,8 18 10 - - WNW - 0,0
09.07.2020 15:00:00 15,7 14,4 24 13 - - WSW - 0,0
09.07.2020 14:00:00 15,2 13,8 24 13 - - WSW - 0,0
09.07.2020 13:00:00 15,1 13,9 24 13 - - WSW - 0,0
09.07.2020 12:00:00 15,5 14,9 28 15 - - WSW - 0,0
09.07.2020 11:00:00 14,9 14,7 34 18 - - WSW - 0,0
09.07.2020 10:00:00 15,2 14,9 31 17 - - WSW - 0,0
09.07.2020 09:00:00 15,1 14,9 34 18 48 26 WSW 1012,0 0,2
09.07.2020 08:00:00 15,2 15,0 41 22 52 28 WSW 1012,6 0,6
09.07.2020 07:00:00 15,2 14,9 46 25 55 30 SW 1012,3 0,6
09.07.2020 06:00:00 15,0 14,8 50 27 61 33 SW 1012,5 0,2
09.07.2020 05:00:00 14,9 14,6 52 28 61 33 SW 1011,9 0,4
09.07.2020 04:00:00 14,8 14,5 52 28 61 33 SW - 0,0
09.07.2020 03:00:00 14,8 14,5 54 29 61 33 SW - 0,6
09.07.2020 02:00:00 14,8 14,4 50 27 57 31 SW - 2,0
09.07.2020 01:00:00 14,9 14,4 46 25 61 33 SW - 0,8
09.07.2020 00:00:00 15,1 14,6 41 22 52 28 SW - 0,0
08.07.2020 23:00:00 15,1 14,7 34 18 - - SW - 0,0
08.07.2020 22:00:00 15,1 14,7 37 20 - - SW - 0,0
08.07.2020 21:00:00 15,1 14,8 31 17 - - WSW - 0,0
08.07.2020 20:00:00 15,0 14,7 35 19 50 27 WSW - 0,0
08.07.2020 19:00:00 15,0 14,7 39 21 48 26 WSW - 0,2
08.07.2020 18:00:00 15,0 14,7 41 22 48 26 WSW - 0,6
08.07.2020 17:00:00 15,1 14,7 37 20 - - WSW - 1,0
08.07.2020 16:00:00 15,1 14,6 31 17 - - WSW - 1,4
08.07.2020 15:00:00 15,0 14,4 35 19 - - WSW - 0,0
08.07.2020 14:00:00 15,3 14,4 31 17 - - WSW - 0,0
08.07.2020 13:00:00 15,2 14,5 29 16 - - WSW - 0,0
08.07.2020 12:00:00 14,9 14,5 26 14 - - WSW - 0,0
08.07.2020 11:00:00 14,8 14,4 28 15 - - WSW - 0,0
08.07.2020 10:00:00 15,0 14,5 21 11 - - WSW 1015,7 0,2
08.07.2020 09:00:00 14,8 14,4 18 10 - - WSW 1015,4 0,2
08.07.2020 08:00:00 14,6 14,2 22 12 - - W 1015,1 0,2
08.07.2020 07:00:00 14,5 14,1 22 12 - - W 1016,9 0,0
08.07.2020 06:00:00 14,6 14,2 29 16 - - W 1016,5 0,2
08.07.2020 05:00:00 14,7 14,3 29 16 - - W 1016,4 1,2
08.07.2020 04:00:00 14,8 14,4 31 17 - - W 1016,5 1,8
08.07.2020 03:00:00 14,8 14,5 39 21 46 25 WSW 1017,0 2,4
08.07.2020 02:00:00 14,9 14,6 37 20 - - WSW 1017,6 1,6
08.07.2020 01:00:00 14,9 14,6 37 20 46 25 WSW 1017,9 2,0
08.07.2020 00:00:00 14,9 14,5 41 22 50 27 WSW 1018,0 1,4
07.07.2020 23:00:00 14,8 14,4 42 23 52 28 WSW 1016,5 3,0
07.07.2020 22:00:00 14,7 14,2 44 24 57 31 WSW 1016,6 2,2
07.07.2020 21:00:00 14,6 13,9 50 27 63 34 WSW 1016,7 0,4
07.07.2020 20:00:00 14,6 13,8 52 28 68 37 WSW 1017,2 0,2
07.07.2020 19:00:00 14,8 13,4 55 30 67 36 WSW 1017,3 0,0
07.07.2020 18:00:00 14,7 13,3 57 31 67 36 WSW 1017,9 0,0
07.07.2020 17:00:00 14,4 12,3 54 29 61 33 WSW 1018,7 0,0
07.07.2020 16:00:00 14,5 11,6 50 27 59 32 SW 1019,5 0,0
07.07.2020 15:00:00 14,5 11,6 42 23 - - SW 1020,0 0,0
07.07.2020 14:00:00 - - - - - - - - -
07.07.2020 13:00:00 14,6 10,7 - - - - - 1021,0 0,0
07.07.2020 12:00:00 14,4 10,0 - - - - - 1021,5 0,0
07.07.2020 11:00:00 15,0 12,2 - - - - - 1021,5 0,0
07.07.2020 10:00:00 14,4 11,7 - - - - - 1021,9 0,0
07.07.2020 09:00:00 14,4 11,7 - - - - - 1022,0 0,0
07.07.2020 08:00:00 14,3 11,9 - - - - - 1022,2 0,0
07.07.2020 07:00:00 14,1 11,8 - - - - - 1022,2 0,0
07.07.2020 06:00:00 14,1 11,6 - - - - - 1022,3 0,0
07.07.2020 05:00:00 14,3 11,5 - - - - - 1022,7 0,0
07.07.2020 04:00:00 14,3 11,4 - - - - - 1023,3 0,0
07.07.2020 03:00:00 13,9 11,3 - - - - - 1024,0 0,0
07.07.2020 02:00:00 13,4 10,9 - - - - - 1024,6 0,0
07.07.2020 01:00:00 13,6 10,8 - - - - - 1024,8 0,0
07.07.2020 00:00:00 13,9 11,5 - - - - - 1024,9 0,0
06.07.2020 23:00:00 13,9 10,4 - - - - - 1025,2 0,0
06.07.2020 22:00:00 14,4 10,6 - - - - - 1025,3 0,0
06.07.2020 21:00:00 15,1 10,4 - - - - - 1025,3 0,0
06.07.2020 20:00:00 15,9 10,1 - - - - - 1025,0 0,0
06.07.2020 19:00:00 17,8 7,0 - - - - - 1024,8 0,0
06.07.2020 18:00:00 18,5 7,2 - - - - - 1024,7 0,0
06.07.2020 17:00:00 18,0 7,5 - - - - - 1025,2 0,0
06.07.2020 16:00:00 17,8 7,8 - - - - - 1024,5 0,0
06.07.2020 15:00:00 16,2 8,4 - - - - - 1024,4 0,0
06.07.2020 14:00:00 16,3 9,6 - - - - - 1024,4 0,0
06.07.2020 13:00:00 15,5 9,2 - - - - - 1023,7 0,0
06.07.2020 12:00:00 15,1 8,7 - - - - - 1023,0 0,0
06.07.2020 11:00:00 14,6 8,7 - - - - - 1022,3 0,0
06.07.2020 10:00:00 14,1 8,3 - - - - - 1021,7 0,0
06.07.2020 09:00:00 13,9 7,5 - - - - - 1021,8 0,0
06.07.2020 08:00:00 13,2 9,4 - - - - - 1020,7 0,0
06.07.2020 07:00:00 12,7 8,8 - - - - - 1019,9 0,0
06.07.2020 06:00:00 12,1 8,8 - - - - - 1018,8 0,0
06.07.2020 05:00:00 11,9 8,3 - - - - - 1018,3 0,0
06.07.2020 04:00:00 12,6 9,5 - - - - - 1017,9 0,0
06.07.2020 03:00:00 12,6 9,3 - - - - - 1017,9 0,0
06.07.2020 02:00:00 12,7 9,2 - - - - - 1017,8 0,0
06.07.2020 01:00:00 13,3 9,9 - - - - - 1017,5 0,0
06.07.2020 00:00:00 13,6 10,0 - - - - - 1016,6 0,0
05.07.2020 23:00:00 13,6 9,6 - - - - - 1016,3 0,0
05.07.2020 22:00:00 14,0 10,2 - - - - - 1015,8 0,0
05.07.2020 21:00:00 14,1 10,0 - - - - - 1015,4 0,0
05.07.2020 20:00:00 14,5 10,0 - - - - - 1014,7 0,0
05.07.2020 19:00:00 14,8 10,4 - - - - - 1014,2 0,0
05.07.2020 18:00:00 15,3 10,8 - - - - - 1014,0 0,0
05.07.2020 17:00:00 15,3 10,7 - - - - - 1014,2 0,0
05.07.2020 16:00:00 15,3 10,7 - - - - - 1013,9 0,0
05.07.2020 15:00:00 16,0 9,9 - - - - - 1014,1 0,0

tt = temperature
td = dewpoint
ff = wind speed
fx = gusts
dd = wind direction
ppp = reduced air pressure
rr = precipitation

Next stations